Terminal Aerodrome Forecast
Issued by NWS

Home | Current Version | Previous Version | Graphics & Text | Print | Product List | Glossary On
Versions: 1 2 3 4 5 6 7 8 9 10 11 12 13 14 15 16 17
268
FTUS43 KGRB 251727 CCA
TAFMTW
TAF COR
KMTW 251727Z 2518/2618 29008G14KT P6SM BKN150 BKN200
     FM260000 28005KT P6SM SCT150 BKN200=

USA.gov is the U.S. government's official web portal to all federal, state and local government web resources and services.